Time;durP1;ratioP1;P1;durP2;ratioP2;P2;SDS_P1;SDS_P2;PMS_P1;PMS_P2;Temp;Humidity;BMP_temperature;BMP_pressure;BME280_temperature;BME280_humidity;BME280_pressure;Samples;Min_cycle;Max_cycle;Signal;HPM_P1;HPM_P2
2023/01/02 00:01:03;;;;;;;8.80;3.75;;;11.40;86.50;;;;;;5026864;28;20053;-80
2023/01/02 00:03:31;;;;;;;7.72;4.00;;;11.40;86.60;;;;;;5028178;28;20139;-80
2023/01/02 00:05:58;;;;;;;8.17;3.87;;;11.40;86.60;;;;;;5034942;28;20058;-79
2023/01/02 00:08:25;;;;;;;7.35;3.50;;;11.40;86.60;;;;;;5028203;28;20297;-80
2023/01/02 00:10:52;;;;;;;7.35;3.50;;;11.40;86.60;;;;;;5028775;28;20060;-80
2023/01/02 00:13:20;;;;;;;8.35;3.70;;;11.40;86.60;;;;;;5026972;28;20058;-81
2023/01/02 00:15:47;;;;;;;11.38;4.47;;;11.40;86.80;;;;;;5025127;28;20136;-80
2023/01/02 00:18:15;;;;;;;7.90;4.13;;;11.50;87.00;;;;;;5027373;28;20126;-80
2023/01/02 00:20:42;;;;;;;8.52;4.32;;;11.50;86.90;;;;;;5028745;28;20332;-81
2023/01/02 00:23:09;;;;;;;9.88;4.40;;;11.50;87.00;;;;;;5026230;28;20870;-81
2023/01/02 00:25:36;;;;;;;8.27;4.70;;;11.50;87.10;;;;;;5027058;28;20192;-80
2023/01/02 00:28:03;;;;;;;7.88;4.20;;;11.50;86.90;;;;;;5031404;28;20054;-80
2023/01/02 00:30:32;;;;;;;11.33;5.40;;;11.50;87.10;;;;;;5028900;28;20049;-80
2023/01/02 00:32:59;;;;;;;11.90;6.03;;;11.50;87.10;;;;;;5026951;28;20257;-80
2023/01/02 00:35:26;;;;;;;8.80;5.30;;;11.50;87.20;;;;;;5034325;28;20791;-80
2023/01/02 00:37:53;;;;;;;12.07;5.63;;;11.50;87.20;;;;;;5027304;28;20289;-80
2023/01/02 00:40:20;;;;;;;10.73;5.80;;;11.50;87.20;;;;;;5010069;28;20045;-81
2023/01/02 00:42:47;;;;;;;12.33;6.40;;;11.50;87.30;;;;;;5026753;28;20057;-80
2023/01/02 00:45:14;;;;;;;12.30;6.70;;;11.50;87.50;;;;;;5026832;28;20349;-80
2023/01/02 00:47:43;;;;;;;11.93;6.63;;;11.50;87.50;;;;;;5026725;28;20050;-81
2023/01/02 00:50:10;;;;;;;14.07;6.97;;;11.50;87.40;;;;;;5036109;28;20065;-79
2023/01/02 00:52:37;;;;;;;13.48;7.18;;;11.50;87.80;;;;;;5037418;28;20046;-80
2023/01/02 00:55:05;;;;;;;12.57;6.47;;;11.50;87.60;;;;;;5045433;28;20054;-81
2023/01/02 00:57:32;;;;;;;12.88;6.97;;;11.50;87.80;;;;;;5046836;28;20358;-80
2023/01/02 00:59:59;;;;;;;12.18;7.47;;;11.50;87.60;;;;;;5038605;28;20173;-80
2023/01/02 01:02:30;;;;;;;14.02;6.93;;;11.50;87.70;;;;;;5026494;28;20496;-80
2023/01/02 01:04:58;;;;;;;15.52;8.25;;;11.50;88.20;;;;;;5027881;28;20533;-80
2023/01/02 01:07:25;;;;;;;17.67;7.77;;;11.50;88.20;;;;;;5033916;28;20073;-80
2023/01/02 01:09:52;;;;;;;15.75;6.97;;;11.50;88.20;;;;;;5027894;28;20765;-79
2023/01/02 01:12:19;;;;;;;14.80;7.60;;;11.50;88.30;;;;;;5026715;28;20057;-80
2023/01/02 01:14:51;;;;;;;14.20;7.68;;;11.50;88.40;;;;;;5009975;28;20058;-80
2023/01/02 01:17:19;;;;;;;12.95;7.30;;;11.50;88.60;;;;;;5038325;28;20060;-80
2023/01/02 01:19:46;;;;;;;13.97;6.97;;;11.50;88.70;;;;;;5026894;28;20050;-80
2023/01/02 01:22:14;;;;;;;13.95;6.93;;;11.50;88.50;;;;;;5034577;28;20289;-80
2023/01/02 01:24:41;;;;;;;13.90;6.35;;;11.50;88.80;;;;;;5026298;28;20135;-81
2023/01/02 01:27:09;;;;;;;15.43;7.05;;;11.50;88.90;;;;;;5027792;28;20050;-80
2023/01/02 01:29:36;;;;;;;14.27;6.50;;;11.50;88.70;;;;;;5025995;28;20061;-80
2023/01/02 01:32:03;;;;;;;12.50;6.60;;;11.50;88.90;;;;;;5030754;28;20057;-81
2023/01/02 01:34:30;;;;;;;14.13;6.90;;;11.50;89.00;;;;;;5022724;28;20254;-80
2023/01/02 01:36:57;;;;;;;12.25;5.70;;;11.50;89.20;;;;;;5029543;28;20049;-80
2023/01/02 01:39:25;;;;;;;14.57;6.75;;;11.50;89.30;;;;;;5021983;28;20054;-81
2023/01/02 01:41:53;;;;;;;11.75;5.82;;;11.60;89.40;;;;;;5046473;28;20499;-79
2023/01/02 01:44:43;;;;;;;13.00;6.00;;;11.50;89.50;;;;;;5036641;28;20116;-80
2023/01/02 01:47:18;;;;;;;12.40;5.80;;;11.50;89.40;;;;;;5031140;28;20276;-81
2023/01/02 01:49:46;;;;;;;12.00;5.97;;;11.50;89.30;;;;;;5007536;28;20539;-81
2023/01/02 01:52:17;;;;;;;13.02;6.13;;;11.50;89.40;;;;;;5010817;28;21021;-81
2023/01/02 01:54:51;;;;;;;13.75;7.05;;;11.50;89.60;;;;;;5011099;28;20201;-81
2023/01/02 01:57:23;;;;;;;12.00;6.10;;;11.60;89.70;;;;;;5014867;28;20073;-80
2023/01/02 01:59:50;;;;;;;13.35;5.60;;;11.70;89.80;;;;;;5047870;28;20269;-80
2023/01/02 02:02:18;;;;;;;12.45;5.90;;;11.70;89.80;;;;;;5036495;28;20056;-80
2023/01/02 02:04:45;;;;;;;11.07;5.80;;;11.70;89.80;;;;;;5030242;28;20052;-80
2023/01/02 02:07:13;;;;;;;13.73;6.05;;;11.70;89.80;;;;;;5024900;28;20496;-79
2023/01/02 02:09:45;;;;;;;11.43;6.67;;;11.70;90.00;;;;;;5034281;28;20053;-81
2023/01/02 02:12:16;;;;;;;14.15;6.00;;;11.70;90.10;;;;;;5038656;28;20314;-80
2023/01/02 02:14:43;;;;;;;10.80;6.20;;;11.70;90.00;;;;;;5027135;28;20054;-81
2023/01/02 02:17:20;;;;;;;12.50;5.25;;;11.70;90.10;;;;;;5032970;28;20069;-80
2023/01/02 02:20:23;;;;;;;13.90;5.63;;;11.70;90.00;;;;;;5030021;28;20144;-81
2023/01/02 02:23:24;;;;;;;10.67;5.00;;;11.70;90.00;;;;;;5025108;28;20800;-81
2023/01/02 02:26:23;;;;;;;14.93;5.97;;;11.70;89.90;;;;;;5036277;28;20290;-80
2023/01/02 02:29:12;;;;;;;9.07;5.40;;;11.70;90.00;;;;;;5038397;28;20049;-81
2023/01/02 02:31:49;;;;;;;11.10;5.47;;;11.70;89.90;;;;;;5039368;28;20522;-81
2023/01/02 02:34:23;;;;;;;13.07;5.30;;;11.70;89.80;;;;;;5035960;28;20042;-80
2023/01/02 02:36:59;;;;;;;12.03;5.27;;;11.70;89.90;;;;;;5027690;28;20050;-81
2023/01/02 02:39:35;;;;;;;13.32;6.03;;;11.70;89.90;;;;;;5036332;28;20275;-80
2023/01/02 02:42:12;;;;;;;11.55;5.55;;;11.70;90.00;;;;;;5046957;28;20057;-81
2023/01/02 02:44:46;;;;;;;11.77;5.30;;;11.70;90.00;;;;;;5038037;28;20586;-80
2023/01/02 02:47:22;;;;;;;12.75;5.65;;;11.70;89.90;;;;;;5048225;28;20046;-81
2023/01/02 02:49:54;;;;;;;10.70;5.30;;;11.70;89.80;;;;;;5048123;28;20046;-81
2023/01/02 02:52:26;;;;;;;10.70;5.97;;;11.70;89.80;;;;;;5048448;28;20328;-80
2023/01/02 02:54:59;;;;;;;12.35;5.63;;;11.70;89.80;;;;;;5047366;28;20050;-81
2023/01/02 02:57:26;;;;;;;13.35;5.35;;;11.70;89.80;;;;;;5033169;28;20054;-81
2023/01/02 02:59:54;;;;;;;12.85;5.40;;;11.70;89.80;;;;;;5040287;28;20133;-79
2023/01/02 03:02:22;;;;;;;13.17;5.50;;;11.70;89.70;;;;;;5036911;28;20050;-80
2023/01/02 03:04:53;;;;;;;11.80;5.50;;;11.70;89.70;;;;;;5043862;28;20345;-81
2023/01/02 03:07:26;;;;;;;13.20;5.93;;;11.70;89.60;;;;;;5040108;28;20049;-80
2023/01/02 03:10:08;;;;;;;11.10;5.00;;;11.80;89.60;;;;;;5037016;28;20049;-81
2023/01/02 03:12:43;;;;;;;14.13;5.70;;;11.80;89.70;;;;;;5029989;28;20058;-78
2023/01/02 03:15:18;;;;;;;13.87;5.97;;;11.80;90.00;;;;;;5016811;28;21085;-80
2023/01/02 03:17:58;;;;;;;13.30;5.28;;;11.80;90.00;;;;;;5040593;28;20270;-80
2023/01/02 03:20:29;;;;;;;12.10;5.70;;;11.80;90.00;;;;;;5032347;28;20151;-80
2023/01/02 03:23:02;;;;;;;10.32;5.70;;;11.90;90.20;;;;;;5034298;28;20073;-80
2023/01/02 03:25:31;;;;;;;12.57;6.28;;;11.90;90.10;;;;;;5026940;28;20137;-81
2023/01/02 03:28:03;;;;;;;10.57;5.13;;;11.90;90.10;;;;;;5028118;28;20054;-80
2023/01/02 03:30:33;;;;;;;11.75;5.50;;;11.90;90.30;;;;;;5030285;28;20828;-80
2023/01/02 03:33:06;;;;;;;12.02;5.63;;;11.90;90.20;;;;;;5029363;28;20046;-81
2023/01/02 03:35:36;;;;;;;12.32;5.32;;;11.90;90.30;;;;;;5030922;28;20152;-80
2023/01/02 03:38:08;;;;;;;13.30;5.85;;;11.90;90.40;;;;;;5028672;28;20046;-79
2023/01/02 03:40:38;;;;;;;10.83;5.17;;;11.90;90.50;;;;;;5033666;28;20137;-80
2023/01/02 03:43:10;;;;;;;12.90;5.68;;;11.90;90.60;;;;;;5030165;28;20348;-80
2023/01/02 03:45:43;;;;;;;13.57;5.07;;;11.90;90.50;;;;;;5042842;28;20057;-80
2023/01/02 03:48:17;;;;;;;13.02;5.60;;;11.90;90.50;;;;;;5036616;28;20196;-80
2023/01/02 03:50:48;;;;;;;13.10;5.50;;;11.90;90.80;;;;;;5047413;28;20124;-80
2023/01/02 03:53:15;;;;;;;10.90;5.27;;;11.90;90.50;;;;;;5046820;28;20052;-80
2023/01/02 03:55:55;;;;;;;9.68;4.53;;;11.90;90.50;;;;;;5047605;28;20344;-81
2023/01/02 03:58:28;;;;;;;11.57;5.13;;;11.90;90.50;;;;;;5039288;28;20045;-81
2023/01/02 04:01:04;;;;;;;12.55;5.30;;;11.90;90.60;;;;;;5037835;28;20050;-81
2023/01/02 04:03:37;;;;;;;14.88;5.53;;;11.90;90.60;;;;;;5026600;28;20054;-81
2023/01/02 04:06:10;;;;;;;11.07;5.03;;;11.90;90.60;;;;;;5029640;28;20054;-81
2023/01/02 04:08:41;;;;;;;9.98;5.60;;;11.90;90.60;;;;;;5038596;28;20253;-80
2023/01/02 04:11:09;;;;;;;11.20;5.18;;;11.90;90.60;;;;;;5036848;28;20066;-81
2023/01/02 04:13:42;;;;;;;12.82;5.50;;;11.90;90.50;;;;;;5007230;28;20050;-80
2023/01/02 04:16:13;;;;;;;13.13;5.53;;;11.90;90.60;;;;;;5007968;28;20052;-80
2023/01/02 04:18:46;;;;;;;9.63;5.63;;;11.90;90.50;;;;;;5007282;28;20054;-81
2023/01/02 04:21:18;;;;;;;11.85;4.68;;;11.90;90.70;;;;;;5008882;28;20288;-81
2023/01/02 04:23:49;;;;;;;13.15;5.40;;;11.90;90.60;;;;;;4991007;28;20133;-81
2023/01/02 04:26:21;;;;;;;12.75;5.40;;;11.90;90.60;;;;;;4991222;28;20061;-80
2023/01/02 04:28:50;;;;;;;14.70;5.57;;;11.90;90.60;;;;;;4991063;28;20057;-80
2023/01/02 04:31:22;;;;;;;11.87;5.13;;;11.90;90.80;;;;;;5029172;28;20060;-80
2023/01/02 04:33:53;;;;;;;15.10;5.68;;;11.90;90.70;;;;;;5016568;28;20273;-81
2023/01/02 04:36:21;;;;;;;11.38;5.50;;;11.90;90.80;;;;;;5042175;28;20049;-79
2023/01/02 04:38:49;;;;;;;11.07;5.45;;;11.90;90.70;;;;;;5037615;28;20089;-80
2023/01/02 04:41:25;;;;;;;9.35;4.68;;;11.90;90.80;;;;;;5031205;28;20086;-80
2023/01/02 04:43:53;;;;;;;10.43;5.10;;;11.90;90.80;;;;;;5030916;28;20061;-80
2023/01/02 04:46:20;;;;;;;11.45;5.25;;;11.90;90.90;;;;;;5026956;28;20277;-81
2023/01/02 04:48:47;;;;;;;13.65;5.68;;;12.00;90.90;;;;;;5025897;28;20046;-80
2023/01/02 04:51:16;;;;;;;9.70;5.32;;;12.00;90.90;;;;;;5012510;28;20057;-80
2023/01/02 04:53:43;;;;;;;10.95;5.60;;;12.00;90.90;;;;;;5038469;28;20053;-80
2023/01/02 04:56:10;;;;;;;12.30;4.70;;;12.00;91.00;;;;;;5032252;28;20074;-81
2023/01/02 04:58:37;;;;;;;15.93;5.63;;;12.00;91.00;;;;;;5037305;28;20784;-79
2023/01/02 05:01:08;;;;;;;12.32;5.45;;;12.00;91.00;;;;;;5027707;28;20050;-79
2023/01/02 05:03:39;;;;;;;12.88;5.28;;;12.10;91.10;;;;;;5027036;28;20430;-80
2023/01/02 05:06:06;;;;;;;12.80;5.53;;;12.10;90.90;;;;;;5026871;28;20083;-78
2023/01/02 05:08:35;;;;;;;13.77;5.63;;;12.10;91.10;;;;;;5026126;28;20042;-80
2023/01/02 05:11:05;;;;;;;9.15;4.53;;;12.10;90.90;;;;;;5026485;28;20344;-79
2023/01/02 05:13:32;;;;;;;10.95;5.10;;;12.10;91.00;;;;;;5026954;28;20054;-78
2023/01/02 05:16:00;;;;;;;12.50;4.20;;;12.10;91.00;;;;;;5026724;28;20143;-81
2023/01/02 05:18:28;;;;;;;13.43;5.30;;;12.10;91.10;;;;;;5032959;28;20569;-81
2023/01/02 05:21:00;;;;;;;10.57;4.73;;;12.10;91.00;;;;;;5037445;28;20054;-80
2023/01/02 05:26:13;;;;;;;8.35;4.60;;;12.10;91.10;;;;;;5047370;28;20953;-80
2023/01/02 05:28:41;;;;;;;10.32;4.93;;;12.20;91.10;;;;;;5051549;28;20056;-81
2023/01/02 05:31:08;;;;;;;12.38;4.75;;;12.20;91.10;;;;;;5038904;28;20132;-80
2023/01/02 05:33:35;;;;;;;11.87;4.77;;;12.20;91.20;;;;;;5037271;28;20041;-80
2023/01/02 05:36:04;;;;;;;11.13;5.32;;;12.20;91.20;;;;;;5036749;28;20262;-80
2023/01/02 05:38:32;;;;;;;11.00;4.63;;;12.20;91.30;;;;;;5029443;28;20060;-81
2023/01/02 05:41:02;;;;;;;11.65;4.00;;;12.20;91.20;;;;;;5029526;28;20049;-80
2023/01/02 05:43:34;;;;;;;11.38;4.60;;;12.20;91.30;;;;;;5031421;28;20511;-80
2023/01/02 05:46:07;;;;;;;13.83;4.77;;;12.20;91.20;;;;;;5056870;28;20152;-80
2023/01/02 05:48:34;;;;;;;10.38;4.85;;;12.20;91.20;;;;;;5035700;28;20367;-80
2023/01/02 05:51:01;;;;;;;12.95;4.60;;;12.20;91.20;;;;;;5037674;28;20541;-80
2023/01/02 05:53:29;;;;;;;10.63;4.53;;;12.30;91.30;;;;;;5042103;28;20057;-80
2023/01/02 05:56:02;;;;;;;11.57;4.90;;;12.20;91.40;;;;;;5046755;28;20062;-79
2023/01/02 05:58:31;;;;;;;10.50;4.30;;;12.30;91.40;;;;;;5037567;28;20130;-80
2023/01/02 06:01:05;;;;;;;11.98;4.30;;;12.30;91.40;;;;;;5050886;28;20273;-80
2023/01/02 06:03:32;;;;;;;10.18;3.80;;;12.30;91.40;;;;;;5032340;28;20066;-80
2023/01/02 06:06:03;;;;;;;12.60;4.57;;;12.30;91.50;;;;;;5045184;28;20050;-80
2023/01/02 06:08:30;;;;;;;8.90;3.58;;;12.30;91.40;;;;;;5038676;28;20137;-80
2023/01/02 06:10:58;;;;;;;10.87;4.70;;;12.30;91.50;;;;;;5029057;28;20060;-80
2023/01/02 06:13:26;;;;;;;13.40;4.30;;;12.30;91.50;;;;;;5027236;28;20276;-79
2023/01/02 06:15:54;;;;;;;12.75;4.95;;;12.30;91.50;;;;;;5027361;28;20081;-81
2023/01/02 06:18:23;;;;;;;11.30;4.93;;;12.30;91.50;;;;;;5032767;28;20678;-80
2023/01/02 06:20:50;;;;;;;9.88;4.35;;;12.30;91.50;;;;;;5039875;28;20136;-80
2023/01/02 06:23:18;;;;;;;13.23;4.90;;;12.30;91.40;;;;;;5032258;28;20074;-79
2023/01/02 06:25:45;;;;;;;11.52;4.50;;;12.40;91.50;;;;;;5037900;28;20284;-80
2023/01/02 06:28:13;;;;;;;12.13;4.80;;;12.40;91.40;;;;;;5039670;28;20049;-80
2023/01/02 06:30:40;;;;;;;8.88;3.80;;;12.50;91.40;;;;;;5033094;28;20054;-81
2023/01/02 06:33:07;;;;;;;11.40;4.15;;;12.40;91.20;;;;;;5029181;28;20874;-80
2023/01/02 06:35:35;;;;;;;10.60;4.23;;;12.50;91.30;;;;;;5028730;28;20143;-80
2023/01/02 06:38:02;;;;;;;8.70;4.13;;;12.50;91.30;;;;;;5029481;28;20256;-80
2023/01/02 06:40:29;;;;;;;9.18;4.15;;;12.50;91.30;;;;;;5039186;28;20595;-78
2023/01/02 06:42:56;;;;;;;9.50;4.55;;;12.50;91.30;;;;;;5032471;28;20050;-78
2023/01/02 06:45:23;;;;;;;8.18;3.78;;;12.50;91.20;;;;;;5039319;28;20415;-80
2023/01/02 06:47:59;;;;;;;10.47;4.53;;;12.50;91.30;;;;;;5043347;28;20170;-80
2023/01/02 06:50:26;;;;;;;9.38;4.07;;;12.50;91.40;;;;;;5027884;28;20734;-80
2023/01/02 06:52:55;;;;;;;8.35;3.85;;;12.50;91.30;;;;;;5028133;28;20078;-80
2023/01/02 06:55:22;;;;;;;9.00;4.03;;;12.50;91.30;;;;;;5044234;28;20054;-81
2023/01/02 06:57:49;;;;;;;7.05;3.70;;;12.50;91.40;;;;;;5026405;28;20049;-80
2023/01/02 07:00:17;;;;;;;10.00;4.23;;;12.50;91.30;;;;;;5029552;28;20132;-80
2023/01/02 07:02:44;;;;;;;7.28;3.88;;;12.50;91.20;;;;;;5032017;28;20853;-79
2023/01/02 07:05:11;;;;;;;8.63;3.92;;;12.50;91.20;;;;;;5035852;28;21139;-79
2023/01/02 07:07:38;;;;;;;6.47;3.22;;;12.50;91.00;;;;;;5042558;28;20054;-81
2023/01/02 07:10:07;;;;;;;5.38;2.42;;;12.50;91.10;;;;;;5027985;28;20052;-79
2023/01/02 07:12:36;;;;;;;4.70;2.10;;;12.40;90.40;;;;;;5030957;28;20814;-79
2023/01/02 07:15:03;;;;;;;3.97;1.67;;;12.30;89.80;;;;;;5038807;28;20296;-80
2023/01/02 07:17:31;;;;;;;3.72;1.42;;;12.20;89.10;;;;;;5036778;28;20137;-79
2023/01/02 07:19:59;;;;;;;1.98;0.50;;;12.10;89.00;;;;;;5033636;28;20058;-80
2023/01/02 07:22:26;;;;;;;2.20;0.52;;;12.00;88.30;;;;;;5023973;28;20049;-79
2023/01/02 07:24:54;;;;;;;2.17;0.40;;;11.90;87.20;;;;;;5049215;28;20518;-80
2023/01/02 07:27:22;;;;;;;2.45;0.50;;;11.80;86.80;;;;;;5043792;28;20283;-79
2023/01/02 07:29:49;;;;;;;2.30;0.60;;;11.60;87.00;;;;;;5028078;28;20128;-79
2023/01/02 07:32:16;;;;;;;2.50;0.70;;;11.50;87.00;;;;;;5030519;28;20053;-79
2023/01/02 07:34:43;;;;;;;2.33;0.60;;;11.40;87.20;;;;;;5029489;28;20129;-80
2023/01/02 07:37:10;;;;;;;2.70;1.10;;;11.30;87.30;;;;;;5012178;28;20053;-79
2023/01/02 07:39:37;;;;;;;4.15;1.40;;;11.20;87.30;;;;;;5029480;28;20367;-79
2023/01/02 07:42:05;;;;;;;3.47;1.42;;;11.10;87.40;;;;;;5009978;28;20078;-80
2023/01/02 07:44:33;;;;;;;3.85;1.77;;;11.00;87.60;;;;;;5023003;28;20108;-80
2023/01/02 07:47:00;;;;;;;3.53;1.27;;;10.90;88.00;;;;;;5023773;28;20046;-80
2023/01/02 07:49:27;;;;;;;3.33;1.17;;;10.80;88.20;;;;;;5018214;28;20442;-78
2023/01/02 07:51:55;;;;;;;7.47;2.15;;;10.80;88.50;;;;;;5026240;28;20245;-79
2023/01/02 07:54:22;;;;;;;5.05;2.38;;;10.70;88.90;;;;;;5025969;28;20586;-78
2023/01/02 07:56:49;;;;;;;5.03;2.22;;;10.70;88.80;;;;;;5023810;28;20579;-79
2023/01/02 07:59:16;;;;;;;5.43;1.83;;;10.60;88.50;;;;;;5007896;28;20070;-78
2023/01/02 08:01:45;;;;;;;5.40;2.03;;;10.60;88.40;;;;;;5020218;28;20053;-78
2023/01/02 08:04:15;;;;;;;4.53;1.80;;;10.50;88.50;;;;;;5026038;28;20254;-78
2023/01/02 08:06:42;;;;;;;5.40;2.28;;;10.40;88.60;;;;;;5030333;28;20149;-78
2023/01/02 08:09:09;;;;;;;4.03;1.42;;;10.40;88.60;;;;;;5030582;28;20133;-76
2023/01/02 08:11:36;;;;;;;3.80;1.20;;;10.20;87.80;;;;;;5009122;28;20046;-77
2023/01/02 08:14:04;;;;;;;3.40;1.00;;;10.20;87.60;;;;;;5023994;28;20496;-77
2023/01/02 08:16:31;;;;;;;3.17;1.05;;;10.10;87.30;;;;;;5026495;28;20889;-77
2023/01/02 08:18:59;;;;;;;4.22;1.00;;;10.00;87.50;;;;;;5023390;28;20050;-79
2023/01/02 08:21:26;;;;;;;3.67;0.93;;;10.00;87.70;;;;;;5037102;28;20172;-79
2023/01/02 08:23:54;;;;;;;2.45;0.43;;;9.90;88.10;;;;;;5025884;28;20056;-76
2023/01/02 08:26:22;;;;;;;2.73;0.60;;;9.80;88.20;;;;;;5028801;28;20055;-78
2023/01/02 08:28:49;;;;;;;1.73;0.38;;;9.80;88.20;;;;;;5038802;28;20384;-76
2023/01/02 08:31:18;;;;;;;2.03;0.32;;;9.80;88.00;;;;;;5024369;28;20650;-77
2023/01/02 08:33:46;;;;;;;2.60;0.52;;;9.70;87.40;;;;;;5033906;28;20061;-77
2023/01/02 08:36:14;;;;;;;2.05;0.38;;;9.60;87.20;;;;;;5028757;28;20053;-77
2023/01/02 08:38:42;;;;;;;1.03;0.13;;;9.50;87.40;;;;;;5022974;28;20132;-78
2023/01/02 08:41:09;;;;;;;1.85;0.40;;;9.40;87.50;;;;;;5033055;28;20284;-78
2023/01/02 08:43:36;;;;;;;2.17;0.30;;;9.40;87.80;;;;;;5036384;28;20100;-78
2023/01/02 08:46:05;;;;;;;1.67;0.30;;;9.30;88.10;;;;;;5020477;28;20062;-80
2023/01/02 08:48:32;;;;;;;3.03;0.30;;;9.30;88.10;;;;;;5025979;28;20058;-79
2023/01/02 08:50:59;;;;;;;2.80;0.40;;;9.20;88.40;;;;;;5026151;28;20107;-79
2023/01/02 08:53:28;;;;;;;2.13;0.40;;;9.20;88.50;;;;;;5028159;28;20266;-79
2023/01/02 08:55:55;;;;;;;3.30;0.70;;;9.20;88.70;;;;;;5027920;28;20622;-79
2023/01/02 08:58:22;;;;;;;1.45;0.30;;;9.20;88.90;;;;;;5013097;28;20217;-79
2023/01/02 09:00:52;;;;;;;1.90;0.40;;;9.20;88.90;;;;;;5025762;28;20196;-78
2023/01/02 09:03:19;;;;;;;1.50;0.23;;;9.20;88.90;;;;;;5028549;28;20046;-78
2023/01/02 09:05:47;;;;;;;3.35;0.50;;;9.20;89.00;;;;;;5021747;28;20401;-74
2023/01/02 09:08:14;;;;;;;2.70;0.40;;;9.20;88.90;;;;;;5027928;28;20054;-77
2023/01/02 09:10:43;;;;;;;3.40;0.90;;;9.20;88.90;;;;;;5028197;28;20046;-79
2023/01/02 09:13:10;;;;;;;2.97;0.68;;;9.20;88.90;;;;;;5022994;28;20068;-80
2023/01/02 09:15:37;;;;;;;3.17;0.90;;;9.20;88.90;;;;;;5024895;28;20053;-78
2023/01/02 09:18:04;;;;;;;3.05;0.63;;;9.10;88.90;;;;;;5026953;28;20392;-77
2023/01/02 09:20:31;;;;;;;2.95;0.52;;;9.00;89.00;;;;;;5029916;28;20045;-78
2023/01/02 09:22:58;;;;;;;3.42;0.82;;;9.00;89.00;;;;;;5028576;28;20547;-77
2023/01/02 09:25:25;;;;;;;3.05;0.80;;;9.00;89.00;;;;;;5029906;28;20049;-78
2023/01/02 09:27:53;;;;;;;4.03;0.90;;;9.00;89.10;;;;;;5029994;28;20054;-78
2023/01/02 09:30:20;;;;;;;3.38;1.17;;;9.00;89.10;;;;;;5022304;28;20354;-79
2023/01/02 09:32:49;;;;;;;3.85;1.10;;;9.00;89.20;;;;;;5024649;28;20048;-78
2023/01/02 09:35:17;;;;;;;2.95;0.90;;;9.00;89.20;;;;;;5029635;28;20161;-77
2023/01/02 09:37:44;;;;;;;2.88;0.90;;;9.00;89.40;;;;;;5027875;28;20937;-81
2023/01/02 09:40:13;;;;;;;2.80;0.70;;;9.00;89.40;;;;;;5020751;28;20125;-80
2023/01/02 09:42:42;;;;;;;3.17;0.80;;;8.90;89.40;;;;;;5024243;28;20285;-80
2023/01/02 09:45:12;;;;;;;3.53;1.10;;;8.90;89.40;;;;;;5024909;28;20057;-79
2023/01/02 09:47:41;;;;;;;3.60;0.88;;;8.90;89.60;;;;;;5022540;28;20053;-81
2023/01/02 09:50:15;;;;;;;2.38;0.50;;;9.00;89.70;;;;;;5001254;28;20608;-79
2023/01/02 09:52:45;;;;;;;4.23;0.90;;;9.00;89.70;;;;;;5026628;28;20046;-79
2023/01/02 09:55:15;;;;;;;4.30;0.93;;;9.00;89.60;;;;;;5025978;28;20281;-78
2023/01/02 09:57:49;;;;;;;3.75;0.90;;;9.00;89.70;;;;;;5025456;28;20545;-78
2023/01/02 10:00:20;;;;;;;3.58;0.90;;;9.00;89.70;;;;;;5025072;28;20933;-78
2023/01/02 10:03:04;;;;;;;4.15;0.80;;;9.00;89.60;;;;;;5026932;28;20834;-78
2023/01/02 10:06:03;;;;;;;2.53;0.57;;;9.00;89.70;;;;;;5034876;28;20046;-78
2023/01/02 10:08:36;;;;;;;3.40;0.88;;;9.00;89.60;;;;;;5026452;28;20269;-80
2023/01/02 10:11:18;;;;;;;3.00;0.85;;;9.00;89.70;;;;;;5030105;28;20049;-81
2023/01/02 10:13:50;;;;;;;3.38;0.50;;;9.00;89.60;;;;;;5030479;28;20050;-80
2023/01/02 10:16:25;;;;;;;3.88;1.02;;;9.00;89.50;;;;;;5026606;28;20049;-80
2023/01/02 10:18:55;;;;;;;3.03;0.60;;;9.10;89.40;;;;;;5025807;28;20507;-80
2023/01/02 10:21:25;;;;;;;2.55;0.45;;;9.10;89.50;;;;;;5026841;28;20262;-80
2023/01/02 10:24:01;;;;;;;3.65;0.95;;;9.10;89.40;;;;;;5027257;28;20120;-80
2023/01/02 10:26:33;;;;;;;4.32;0.98;;;9.10;89.40;;;;;;5024550;28;20046;-81
2023/01/02 10:29:08;;;;;;;3.13;0.70;;;9.10;89.50;;;;;;5024870;28;20052;-79
2023/01/02 10:31:41;;;;;;;4.27;0.90;;;9.10;89.60;;;;;;5026558;28;20568;-79
2023/01/02 10:34:15;;;;;;;4.30;0.63;;;9.10;89.70;;;;;;5023318;28;20703;-80
2023/01/02 10:36:45;;;;;;;3.38;0.80;;;9.20;89.60;;;;;;5027179;28;20435;-80
2023/01/02 10:39:16;;;;;;;4.15;1.00;;;9.10;89.60;;;;;;5029341;28;20053;-80
2023/01/02 10:41:46;;;;;;;3.10;0.68;;;9.20;89.60;;;;;;5028005;28;20057;-80
2023/01/02 10:44:21;;;;;;;3.73;0.90;;;9.20;89.50;;;;;;5026583;28;20056;-81
2023/01/02 10:46:50;;;;;;;5.03;1.10;;;9.20;89.60;;;;;;5026553;28;20245;-80
2023/01/02 10:49:19;;;;;;;4.68;1.20;;;9.20;89.50;;;;;;5027557;28;20080;-81
2023/01/02 10:51:53;;;;;;;4.30;0.85;;;9.20;89.60;;;;;;5027907;28;20518;-80
2023/01/02 10:54:20;;;;;;;4.38;1.00;;;9.20;89.40;;;;;;5031402;28;20650;-81
2023/01/02 10:56:53;;;;;;;4.00;1.37;;;9.20;89.30;;;;;;5023844;28;20050;-81
2023/01/02 10:59:23;;;;;;;4.35;1.25;;;9.20;89.30;;;;;;5026503;28;21275;-80
2023/01/02 11:01:54;;;;;;;5.35;1.13;;;9.20;89.20;;;;;;5025304;28;20133;-80
2023/01/02 11:04:24;;;;;;;5.45;1.45;;;9.20;89.30;;;;;;5024888;28;21062;-81
2023/01/02 11:06:54;;;;;;;4.72;1.38;;;9.20;89.20;;;;;;5022782;28;20050;-80
2023/01/02 11:09:23;;;;;;;6.70;1.33;;;9.20;89.00;;;;;;5025488;28;20054;-81
2023/01/02 11:11:53;;;;;;;5.45;1.02;;;9.20;88.90;;;;;;5011406;28;20246;-81
2023/01/02 11:14:27;;;;;;;6.18;1.35;;;9.20;88.90;;;;;;5027365;28;20049;-82
2023/01/02 11:17:02;;;;;;;5.07;1.30;;;9.20;88.80;;;;;;5026676;28;20491;-80
2023/01/02 11:19:29;;;;;;;5.20;1.40;;;9.20;88.90;;;;;;5025429;28;20100;-82
2023/01/02 11:21:57;;;;;;;4.63;1.07;;;9.30;88.70;;;;;;5022154;28;20081;-81
2023/01/02 11:24:27;;;;;;;4.05;1.25;;;9.30;88.50;;;;;;5004958;28;20754;-82
2023/01/02 11:26:55;;;;;;;5.43;1.45;;;9.30;88.60;;;;;;5025768;28;20061;-80
2023/01/02 11:29:28;;;;;;;7.80;1.42;;;9.30;88.70;;;;;;5025226;28;20052;-81
2023/01/02 11:32:00;;;;;;;4.95;1.38;;;9.40;88.40;;;;;;5007163;28;20061;-81
2023/01/02 11:34:33;;;;;;;4.97;0.83;;;9.40;88.30;;;;;;5027655;28;20108;-80
2023/01/02 11:37:13;;;;;;;5.85;1.13;;;9.40;88.30;;;;;;5028373;28;20362;-80
2023/01/02 11:39:41;;;;;;;4.05;0.90;;;9.40;88.20;;;;;;5026994;28;20050;-80
2023/01/02 11:45:08;;;;;;;4.70;1.00;;;9.40;87.70;;;;;;5020759;28;20064;-79
2023/01/02 11:47:42;;;;;;;3.53;0.80;;;9.40;87.60;;;;;;5027518;28;20053;-80
2023/01/02 11:50:13;;;;;;;6.00;1.02;;;9.40;87.50;;;;;;5010873;28;20280;-80
2023/01/02 11:52:46;;;;;;;6.72;1.20;;;9.40;87.60;;;;;;5027686;28;20141;-80
2023/01/02 11:55:31;;;;;;;4.00;0.98;;;9.40;87.60;;;;;;5029637;28;20054;-81
2023/01/02 11:58:06;;;;;;;6.60;0.90;;;9.40;87.40;;;;;;5032027;28;20056;-80
2023/01/02 12:00:38;;;;;;;3.60;0.97;;;9.40;87.50;;;;;;5010362;28;20124;-80
2023/01/02 12:03:14;;;;;;;6.03;0.90;;;9.40;87.30;;;;;;5026034;28;21261;-81
2023/01/02 12:05:54;;;;;;;5.82;1.00;;;9.40;87.40;;;;;;5010886;28;20139;-82
2023/01/02 12:08:31;;;;;;;4.88;0.93;;;9.40;87.40;;;;;;5025546;28;20056;-80
2023/01/02 12:11:11;;;;;;;6.38;1.20;;;9.40;87.50;;;;;;5027332;28;20522;-82
2023/01/02 12:13:57;;;;;;;7.67;1.77;;;9.40;87.50;;;;;;5027812;28;20046;-81
2023/01/02 12:16:33;;;;;;;7.88;1.13;;;9.40;87.50;;;;;;5027072;28;20792;-82
2023/01/02 12:19:36;;;;;;;4.15;1.08;;;9.40;87.40;;;;;;5035083;28;20188;-80
2023/01/02 12:22:19;;;;;;;4.65;1.15;;;9.40;87.50;;;;;;5003493;28;20053;-82
2023/01/02 12:24:59;;;;;;;5.47;1.00;;;9.40;87.40;;;;;;5024718;28;20049;-81
2023/01/02 12:27:33;;;;;;;4.77;1.00;;;9.40;87.40;;;;;;5029039;28;20058;-81
2023/01/02 12:30:08;;;;;;;5.05;0.90;;;9.40;87.30;;;;;;5025260;28;20336;-81
2023/01/02 12:33:08;;;;;;;5.60;1.00;;;9.40;86.90;;;;;;5027711;28;20054;-81
2023/01/02 12:36:15;;;;;;;7.28;1.10;;;9.50;86.60;;;;;;5017424;28;20137;-81
2023/01/02 12:39:02;;;;;;;7.15;1.00;;;9.40;86.60;;;;;;4965716;28;20141;-81
2023/01/02 12:41:33;;;;;;;6.50;0.97;;;9.40;86.40;;;;;;5024710;28;20058;-82
2023/01/02 12:44:17;;;;;;;9.15;1.60;;;9.40;86.60;;;;;;5027110;28;20291;-81
2023/01/02 12:47:02;;;;;;;6.18;0.80;;;9.40;86.60;;;;;;5016091;28;20555;-80
2023/01/02 12:49:53;;;;;;;8.40;1.58;;;9.50;86.20;;;;;;5019810;28;20078;-78
2023/01/02 12:52:31;;;;;;;6.45;1.00;;;9.50;86.10;;;;;;5027976;28;20172;-82
2023/01/02 12:55:15;;;;;;;9.77;1.67;;;9.50;86.00;;;;;;5023679;28;20076;-81
2023/01/02 12:57:51;;;;;;;7.65;1.55;;;9.50;86.00;;;;;;5031810;28;20283;-81
2023/01/02 13:00:32;;;;;;;6.93;0.93;;;9.50;85.90;;;;;;5007245;28;20141;-82
2023/01/02 13:03:23;;;;;;;7.00;1.20;;;9.50;85.90;;;;;;5033753;28;20074;-81
2023/01/02 13:05:55;;;;;;;7.18;1.02;;;9.50;86.00;;;;;;5031199;28;20057;-80
2023/01/02 13:08:29;;;;;;;8.60;1.67;;;9.50;86.00;;;;;;5029013;28;20504;-81
2023/01/02 13:10:59;;;;;;;7.47;1.50;;;9.50;86.00;;;;;;5025186;28;20289;-82